createdAt,value
2019-04-07T00:00:04.981Z,14.06
2019-04-07T00:01:04.732Z,14.07
2019-04-07T00:02:04.728Z,14.07
2019-04-07T00:03:05.199Z,14.09
2019-04-07T00:04:05.211Z,14.00
2019-04-07T00:05:11.138Z,14.07
2019-04-07T00:06:05.729Z,14.02
2019-04-07T00:07:04.664Z,14.00
2019-04-07T00:08:04.650Z,14.02
2019-04-07T00:09:04.642Z,13.97
2019-04-07T00:10:04.641Z,13.96
2019-04-07T00:11:04.654Z,13.96
2019-04-07T00:12:04.602Z,13.89
2019-04-07T00:13:05.208Z,13.91
2019-04-07T00:14:04.584Z,13.91
2019-04-07T00:15:04.872Z,13.87
2019-04-07T00:16:04.702Z,13.82
2019-04-07T00:17:04.572Z,13.89
2019-04-07T00:18:05.015Z,13.85
2019-04-07T00:19:04.528Z,13.87
2019-04-07T00:20:04.521Z,13.84
2019-04-07T00:21:04.972Z,13.84
2019-04-07T00:22:04.524Z,13.81
2019-04-07T00:23:04.494Z,13.81
2019-04-07T00:24:04.474Z,13.84
2019-04-07T00:25:05.200Z,13.79
2019-04-07T00:26:04.456Z,13.82
2019-04-07T00:27:04.488Z,13.73
2019-04-07T00:28:04.447Z,13.70
2019-04-07T00:29:04.802Z,13.77
2019-04-07T00:30:04.417Z,13.71
2019-04-07T00:31:04.406Z,13.77
2019-04-07T00:32:04.745Z,13.62
2019-04-07T00:33:04.370Z,13.67
2019-04-07T00:34:04.363Z,13.64
2019-04-07T00:35:04.379Z,13.57
2019-04-07T00:36:04.351Z,13.63
2019-04-07T00:37:04.338Z,13.67
2019-04-07T00:38:04.864Z,13.60
2019-04-07T00:39:04.311Z,13.59
2019-04-07T00:40:04.300Z,13.62
2019-04-07T00:41:04.591Z,13.55
2019-04-07T00:42:04.299Z,13.57
2019-04-07T00:43:04.531Z,13.64
2019-04-07T00:44:04.252Z,13.59
2019-04-07T00:45:04.243Z,13.59
2019-04-07T00:46:04.640Z,13.57
2019-04-07T00:47:04.245Z,13.62
2019-04-07T00:48:04.212Z,13.55
2019-04-07T00:49:04.222Z,13.48
2019-04-07T00:50:04.194Z,13.55
2019-04-07T00:51:04.981Z,13.52
2019-04-07T00:52:04.184Z,13.49
2019-04-07T00:53:04.509Z,13.55
2019-04-07T00:54:04.146Z,13.55
2019-04-07T00:55:04.130Z,13.52
2019-04-07T00:56:04.118Z,13.52
2019-04-07T00:57:04.435Z,13.48
2019-04-07T00:58:04.125Z,13.48
2019-04-07T00:59:04.319Z,13.46
2019-04-07T01:00:04.409Z,13.46
2019-04-07T01:01:04.270Z,13.52
2019-04-07T01:02:04.095Z,13.44
2019-04-07T01:03:04.099Z,13.44
2019-04-07T01:04:04.495Z,13.42
2019-04-07T01:05:04.094Z,13.44
2019-04-07T01:06:04.025Z,13.38
2019-04-07T01:07:04.007Z,13.42
2019-04-07T01:08:04.299Z,13.41
2019-04-07T01:09:04.518Z,13.41
2019-04-07T01:10:03.958Z,13.28
2019-04-07T01:11:04.645Z,13.29
2019-04-07T01:12:04.074Z,13.38
2019-04-07T01:13:04.472Z,13.29
2019-04-07T01:14:03.911Z,13.29
2019-04-07T01:15:04.350Z,13.28
2019-04-07T01:16:03.977Z,13.25
2019-04-07T01:17:03.917Z,13.26
2019-04-07T01:18:04.247Z,13.15
2019-04-07T01:19:04.582Z,13.29
2019-04-07T01:20:04.108Z,13.20
2019-04-07T01:21:03.902Z,13.25
2019-04-07T01:22:03.929Z,13.29
2019-04-07T01:23:03.981Z,13.25
2019-04-07T01:24:04.475Z,13.28
2019-04-07T01:25:03.979Z,13.23
2019-04-07T01:26:03.790Z,13.23
2019-04-07T01:27:03.983Z,13.29
2019-04-07T01:28:04.422Z,13.19
2019-04-07T01:29:03.764Z,13.15
2019-04-07T01:30:04.152Z,13.17
2019-04-07T01:31:04.333Z,13.14
2019-04-07T01:32:03.837Z,13.19
2019-04-07T01:33:03.779Z,13.22
2019-04-07T01:34:04.331Z,13.19
2019-04-07T01:35:03.692Z,13.17
2019-04-07T01:36:03.670Z,13.08
2019-04-07T01:37:03.704Z,13.11
2019-04-07T01:38:03.642Z,13.08
2019-04-07T01:39:04.034Z,13.07
2019-04-07T01:40:03.626Z,13.19
2019-04-07T01:41:04.152Z,13.08
2019-04-07T01:42:03.867Z,13.12
2019-04-07T01:43:04.243Z,13.08
2019-04-07T01:44:03.597Z,13.08
2019-04-07T01:45:03.567Z,13.14
2019-04-07T01:46:03.757Z,13.11
2019-04-07T01:47:03.543Z,13.04
2019-04-07T01:48:03.872Z,12.96
2019-04-07T01:49:03.735Z,12.96
2019-04-07T01:50:03.507Z,13.00
2019-04-07T01:51:03.516Z,12.95
2019-04-07T01:52:04.172Z,12.96
2019-04-07T01:53:03.565Z,12.89
2019-04-07T01:54:03.486Z,12.92
2019-04-07T01:55:03.786Z,12.96
2019-04-07T01:56:03.442Z,13.00
2019-04-07T01:57:03.434Z,12.97
2019-04-07T01:58:04.104Z,12.96
2019-04-07T01:59:03.729Z,12.97
2019-04-07T02:00:03.437Z,12.95
2019-04-07T02:01:03.384Z,12.96
2019-04-07T02:02:03.549Z,13.00
2019-04-07T02:03:03.471Z,12.96
2019-04-07T02:04:03.927Z,12.97
2019-04-07T02:05:03.505Z,12.96
2019-04-07T02:06:05.058Z,12.90
2019-04-07T02:07:03.947Z,12.90
2019-04-07T02:08:03.313Z,12.89
2019-04-07T02:09:03.327Z,12.85
2019-04-07T02:10:03.336Z,12.82
2019-04-07T02:11:03.284Z,12.89
2019-04-07T02:12:03.429Z,12.95
2019-04-07T02:13:03.274Z,12.87
2019-04-07T02:14:03.704Z,12.82
2019-04-07T02:15:03.230Z,12.86
2019-04-07T02:16:03.780Z,12.83
2019-04-07T02:17:03.244Z,12.87
2019-04-07T02:18:03.582Z,12.79
2019-04-07T02:19:03.607Z,12.83
2019-04-07T02:20:03.731Z,12.83
2019-04-07T02:21:03.433Z,12.72
2019-04-07T02:22:03.590Z,12.79
2019-04-07T02:23:03.158Z,12.79
2019-04-07T02:24:03.625Z,12.77
2019-04-07T02:25:03.117Z,12.72
2019-04-07T02:26:03.577Z,12.72
2019-04-07T02:27:03.101Z,12.75
2019-04-07T02:28:03.400Z,12.74
2019-04-07T02:29:03.865Z,12.70
2019-04-07T02:30:03.838Z,12.68
2019-04-07T02:31:03.059Z,12.74
2019-04-07T02:32:03.618Z,12.67
2019-04-07T02:33:03.265Z,12.62
2019-04-07T02:34:03.232Z,12.71
2019-04-07T02:35:03.609Z,12.60
2019-04-07T02:36:16.076Z,12.68
2019-04-07T02:37:04.702Z,12.62
2019-04-07T02:38:03.969Z,12.60
2019-04-07T02:39:02.952Z,12.62
2019-04-07T02:40:04.605Z,12.67
2019-04-07T02:41:04.087Z,12.65
2019-04-07T02:42:02.926Z,12.60
2019-04-07T02:43:03.224Z,12.64
2019-04-07T02:44:02.953Z,12.65
2019-04-07T02:45:02.883Z,12.64
2019-04-07T02:46:02.878Z,12.57
2019-04-07T02:47:03.102Z,12.53
2019-04-07T02:48:03.119Z,12.65
2019-04-07T02:49:03.799Z,12.60
2019-04-07T02:50:03.375Z,12.54
2019-04-07T02:51:03.141Z,12.49
2019-04-07T02:52:03.779Z,12.53
2019-04-07T02:53:02.959Z,12.53
2019-04-07T02:54:02.809Z,12.56
2019-04-07T02:55:02.775Z,12.52
2019-04-07T02:56:03.482Z,12.56
2019-04-07T02:57:03.568Z,12.52
2019-04-07T02:58:02.931Z,12.46
2019-04-07T02:59:02.798Z,12.54
2019-04-07T03:00:02.719Z,12.46
2019-04-07T03:01:02.713Z,12.46
2019-04-07T03:02:02.971Z,12.46
2019-04-07T03:03:03.343Z,12.45
2019-04-07T03:04:03.239Z,12.46
2019-04-07T03:05:02.709Z,12.46
2019-04-07T03:06:02.651Z,12.42
2019-04-07T03:07:02.826Z,12.41
2019-04-07T03:08:03.727Z,12.42
2019-04-07T03:09:03.494Z,12.45
2019-04-07T03:10:03.054Z,12.39
2019-04-07T03:11:02.610Z,12.41
2019-04-07T03:12:03.914Z,12.34
2019-04-07T03:13:02.857Z,12.38
2019-04-07T03:14:02.564Z,12.32
2019-04-07T03:15:03.045Z,12.39
2019-04-07T03:16:02.542Z,12.32
2019-04-07T03:17:02.537Z,12.34
2019-04-07T03:18:02.525Z,12.35
2019-04-07T03:19:02.541Z,12.29
2019-04-07T03:20:02.949Z,12.23
2019-04-07T03:21:02.572Z,12.29
2019-04-07T03:22:02.841Z,12.20
2019-04-07T03:23:03.511Z,12.27
2019-04-07T03:24:02.464Z,12.23
2019-04-07T03:25:02.439Z,12.16
2019-04-07T03:26:02.461Z,12.23
2019-04-07T03:27:02.773Z,12.14
2019-04-07T03:28:02.404Z,12.24
2019-04-07T03:29:03.437Z,12.17
2019-04-07T03:30:03.943Z,12.19
2019-04-07T03:31:04.022Z,12.19
2019-04-07T03:32:02.849Z,12.17
2019-04-07T03:33:05.560Z,12.14
2019-04-07T03:34:04.644Z,12.14
2019-04-07T03:35:03.168Z,12.14
2019-04-07T03:36:05.180Z,12.19
2019-04-07T03:37:19.194Z,12.05
2019-04-07T03:38:03.310Z,12.10
2019-04-07T03:39:03.297Z,12.12
2019-04-07T03:40:02.660Z,12.12
2019-04-07T03:41:03.252Z,12.12
2019-04-07T03:42:03.013Z,12.13
2019-04-07T03:43:02.311Z,12.13
2019-04-07T03:44:03.240Z,12.09
2019-04-07T03:45:02.326Z,12.14
2019-04-07T03:46:02.201Z,12.12
2019-04-07T03:47:03.300Z,11.98
2019-04-07T03:48:02.318Z,12.12
2019-04-07T03:49:02.227Z,12.02
2019-04-07T03:50:03.369Z,11.98
2019-04-07T03:51:03.088Z,12.01
2019-04-07T03:52:03.582Z,12.01
2019-04-07T03:53:02.907Z,12.02
2019-04-07T03:54:02.935Z,12.05
2019-04-07T03:55:02.112Z,12.01
2019-04-07T03:56:02.109Z,12.02
2019-04-07T03:57:02.089Z,11.99
2019-04-07T03:58:02.070Z,11.86
2019-04-07T03:59:02.148Z,11.90
2019-04-07T04:00:02.389Z,11.91
2019-04-07T04:01:02.517Z,11.88
2019-04-07T04:02:02.054Z,11.82
2019-04-07T04:03:02.616Z,11.82
2019-04-07T04:04:02.273Z,11.79
2019-04-07T04:05:02.981Z,11.79
2019-04-07T04:06:02.676Z,11.82
2019-04-07T04:07:18.139Z,11.75
2019-04-07T04:08:02.964Z,11.73
2019-04-07T04:09:02.215Z,11.67
2019-04-07T04:10:02.349Z,11.79
2019-04-07T04:11:02.756Z,11.78
2019-04-07T04:12:01.946Z,11.76
2019-04-07T04:13:01.958Z,11.80
2019-04-07T04:14:02.850Z,11.70
2019-04-07T04:15:02.020Z,11.76
2019-04-07T04:16:02.907Z,11.69
2019-04-07T04:17:02.140Z,11.75
2019-04-07T04:18:01.846Z,11.61
2019-04-07T04:19:02.435Z,11.64
2019-04-07T04:20:02.306Z,11.62
2019-04-07T04:21:01.898Z,11.67
2019-04-07T04:22:02.130Z,11.62
2019-04-07T04:23:01.841Z,11.64
2019-04-07T04:24:01.790Z,11.73
2019-04-07T04:25:02.641Z,11.62
2019-04-07T04:26:02.513Z,11.60
2019-04-07T04:27:01.746Z,11.61
2019-04-07T04:28:01.743Z,11.64
2019-04-07T04:29:02.650Z,11.61
2019-04-07T04:30:02.103Z,11.64
2019-04-07T04:31:01.716Z,11.55
2019-04-07T04:32:01.722Z,11.55
2019-04-07T04:33:02.167Z,11.54
2019-04-07T04:34:01.793Z,11.60
2019-04-07T04:35:01.723Z,11.54
2019-04-07T04:36:02.598Z,11.40
2019-04-07T04:37:01.830Z,11.49
2019-04-07T04:38:01.968Z,11.44
2019-04-07T04:39:01.623Z,11.33
2019-04-07T04:40:01.667Z,11.43
2019-04-07T04:41:02.765Z,11.54
2019-04-07T04:42:01.627Z,11.49
2019-04-07T04:43:02.702Z,11.39
2019-04-07T04:44:02.168Z,11.39
2019-04-07T04:45:02.381Z,11.35
2019-04-07T04:46:01.597Z,11.40
2019-04-07T04:47:02.743Z,11.39
2019-04-07T04:48:02.752Z,11.40
2019-04-07T04:49:02.443Z,11.40
2019-04-07T04:50:02.232Z,11.40
2019-04-07T04:51:01.483Z,11.39
2019-04-07T04:52:01.480Z,11.37
2019-04-07T04:53:02.073Z,11.37
2019-04-07T04:54:01.459Z,11.39
2019-04-07T04:55:01.968Z,11.35
2019-04-07T04:56:01.449Z,11.36
2019-04-07T04:57:05.445Z,11.37
2019-04-07T04:58:02.455Z,11.43
2019-04-07T04:59:01.387Z,11.36
2019-04-07T05:00:01.831Z,11.33
2019-04-07T05:01:02.912Z,11.37
2019-04-07T05:02:01.368Z,11.35
2019-04-07T05:03:01.385Z,11.36
2019-04-07T05:04:01.353Z,11.39
2019-04-07T05:05:02.414Z,11.36
2019-04-07T05:06:01.489Z,11.42
2019-04-07T05:07:01.533Z,11.46
2019-04-07T05:08:03.980Z,11.47
2019-04-07T05:09:02.137Z,11.42
2019-04-07T05:10:01.332Z,11.42
2019-04-07T05:11:01.650Z,11.39
2019-04-07T05:12:04.075Z,11.44
2019-04-07T05:13:01.592Z,11.40
2019-04-07T05:14:01.224Z,11.44
2019-04-07T05:15:01.768Z,11.49
2019-04-07T05:16:01.206Z,11.47
2019-04-07T05:17:01.220Z,11.46
2019-04-07T05:18:01.697Z,11.44
2019-04-07T05:19:02.064Z,11.47
2019-04-07T05:20:01.210Z,11.46
2019-04-07T05:21:01.140Z,11.46
2019-04-07T05:22:01.369Z,11.49
2019-04-07T05:23:01.128Z,11.46
2019-04-07T05:24:01.456Z,11.51
2019-04-07T05:25:01.125Z,11.51
2019-04-07T05:26:01.086Z,11.47
2019-04-07T05:27:01.123Z,11.46
2019-04-07T05:28:01.244Z,11.43
2019-04-07T05:29:01.465Z,11.40
2019-04-07T05:30:01.249Z,11.43
2019-04-07T05:31:01.033Z,11.44
2019-04-07T05:32:01.542Z,11.46
2019-04-07T05:33:01.041Z,11.47
2019-04-07T05:34:01.876Z,11.40
2019-04-07T05:35:01.102Z,11.46
2019-04-07T05:36:00.976Z,11.47
2019-04-07T05:37:01.280Z,11.49
2019-04-07T05:38:04.075Z,11.52
2019-04-07T05:39:02.118Z,11.40
2019-04-07T05:40:02.943Z,11.49
2019-04-07T05:41:00.937Z,11.43
2019-04-07T05:42:01.303Z,11.49
2019-04-07T05:43:00.924Z,11.54
2019-04-07T05:44:01.341Z,11.54
2019-04-07T05:45:00.884Z,11.60
2019-04-07T05:46:00.883Z,11.64
2019-04-07T05:47:01.590Z,11.62
2019-04-07T05:48:00.848Z,11.61
2019-04-07T05:49:00.835Z,11.57
2019-04-07T05:50:03.320Z,11.67
2019-04-07T05:51:01.209Z,11.61
2019-04-07T05:52:04.197Z,11.64
2019-04-07T05:53:00.789Z,11.64
2019-04-07T05:54:01.338Z,11.72
2019-04-07T05:55:01.331Z,11.70
2019-04-07T05:56:01.081Z,11.70
2019-04-07T05:57:01.643Z,11.65
2019-04-07T05:58:03.381Z,11.67
2019-04-07T05:59:00.720Z,11.73
2019-04-07T06:00:01.346Z,11.73
2019-04-07T06:01:00.698Z,11.72
2019-04-07T06:02:02.566Z,11.79
2019-04-07T06:03:04.525Z,11.75
2019-04-07T06:04:02.438Z,11.80
2019-04-07T06:05:01.269Z,11.72
2019-04-07T06:06:00.699Z,11.76
2019-04-07T06:07:00.722Z,11.75
2019-04-07T06:08:17.809Z,11.80
2019-04-07T06:09:01.611Z,11.75
2019-04-07T06:10:01.018Z,11.82
2019-04-07T06:11:02.327Z,11.85
2019-04-07T06:12:01.109Z,11.90
2019-04-07T06:13:00.571Z,11.94
2019-04-07T06:14:00.878Z,11.85
2019-04-07T06:15:00.653Z,11.86
2019-04-07T06:16:00.532Z,11.90
2019-04-07T06:17:00.930Z,11.95
2019-04-07T06:18:01.461Z,11.99
2019-04-07T06:19:01.777Z,12.01
2019-04-07T06:20:00.524Z,12.01
2019-04-07T06:21:00.484Z,11.94
2019-04-07T06:22:01.303Z,12.02
2019-04-07T06:23:00.450Z,11.98
2019-04-07T06:24:00.811Z,12.01
2019-04-07T06:25:01.776Z,12.02
2019-04-07T06:26:00.455Z,12.01
2019-04-07T06:27:00.849Z,12.01
2019-04-07T06:28:00.417Z,12.13
2019-04-07T06:29:00.384Z,12.13
2019-04-07T06:30:00.967Z,12.12
2019-04-07T06:31:01.856Z,12.13
2019-04-07T06:32:03.695Z,12.16
2019-04-07T06:33:00.677Z,12.19
2019-04-07T06:34:00.419Z,12.24
2019-04-07T06:35:00.562Z,12.21
2019-04-07T06:36:00.461Z,12.27
2019-04-07T06:37:00.295Z,12.27
2019-04-07T06:38:05.211Z,12.32
2019-04-07T06:39:01.508Z,12.29
2019-04-07T06:40:01.024Z,12.29
2019-04-07T06:41:01.914Z,12.32
2019-04-07T06:42:01.406Z,12.34
2019-04-07T06:43:01.608Z,12.35
2019-04-07T06:44:10.130Z,12.35
2019-04-07T06:45:01.619Z,12.39
2019-04-07T06:46:00.200Z,12.41
2019-04-07T06:47:03.470Z,12.38
2019-04-07T06:48:01.644Z,12.41
2019-04-07T06:49:01.572Z,12.47
2019-04-07T06:50:00.711Z,12.45
2019-04-07T06:51:00.782Z,12.45
2019-04-07T06:52:02.028Z,12.46
2019-04-07T06:53:00.127Z,12.46
2019-04-07T06:54:00.156Z,12.57
2019-04-07T06:55:00.223Z,12.50
2019-04-07T06:56:03.042Z,12.42
2019-04-07T06:57:02.111Z,12.56
2019-04-07T06:58:01.967Z,12.50
2019-04-07T06:59:00.313Z,12.59
2019-04-07T07:00:00.037Z,12.65
2019-04-07T07:01:02.337Z,12.70
2019-04-07T07:02:00.011Z,12.65
2019-04-07T07:03:02.891Z,12.74
2019-04-07T07:04:00.025Z,12.72
2019-04-07T07:05:00.405Z,12.75
2019-04-07T07:06:01.149Z,12.77
2019-04-07T07:07:00.615Z,12.77
2019-04-07T07:07:59.975Z,12.77
2019-04-07T07:09:00.740Z,12.85
2019-04-07T07:10:00.999Z,12.85
2019-04-07T07:10:59.913Z,12.87
2019-04-07T07:12:00.620Z,12.92
2019-04-07T07:13:02.296Z,12.90
2019-04-07T07:14:00.890Z,12.96
2019-04-07T07:15:00.827Z,13.01
2019-04-07T07:16:00.488Z,13.00
2019-04-07T07:17:00.407Z,13.12
2019-04-07T07:18:00.096Z,13.08
2019-04-07T07:19:02.070Z,13.12
2019-04-07T07:20:02.422Z,13.14
2019-04-07T07:21:01.723Z,13.14
2019-04-07T07:21:59.800Z,13.25
2019-04-07T07:23:00.684Z,13.29
2019-04-07T07:24:00.198Z,13.29
2019-04-07T07:25:01.229Z,13.38
2019-04-07T07:26:02.893Z,13.30
2019-04-07T07:27:00.356Z,13.44
2019-04-07T07:28:00.039Z,13.42
2019-04-07T07:28:59.743Z,13.46
2019-04-07T07:30:00.146Z,13.48
2019-04-07T07:31:00.031Z,13.54
2019-04-07T07:32:03.553Z,13.54
2019-04-07T07:32:59.714Z,13.57
2019-04-07T07:34:00.338Z,13.64
2019-04-07T07:34:59.710Z,13.59
2019-04-07T07:35:59.632Z,13.60
2019-04-07T07:36:59.940Z,13.67
2019-04-07T07:37:59.837Z,13.69
2019-04-07T07:39:02.141Z,13.70
2019-04-07T07:39:59.747Z,13.71
2019-04-07T07:41:01.481Z,13.82
2019-04-07T07:41:59.577Z,13.84
2019-04-07T07:42:59.601Z,13.78
2019-04-07T07:44:03.244Z,13.89
2019-04-07T07:44:59.532Z,13.89
2019-04-07T07:46:00.169Z,13.99
2019-04-07T07:46:59.515Z,14.03
2019-04-07T07:47:59.501Z,14.02
2019-04-07T07:49:01.887Z,14.04
2019-04-07T07:49:59.726Z,14.15
2019-04-07T07:51:00.057Z,14.22
2019-04-07T07:51:59.459Z,14.20
2019-04-07T07:52:59.441Z,14.18
2019-04-07T07:54:01.820Z,14.33
2019-04-07T07:55:00.822Z,14.28
2019-04-07T07:55:59.448Z,14.33
2019-04-07T07:56:59.976Z,14.28
2019-04-07T07:57:59.465Z,14.47
2019-04-07T07:59:00.571Z,14.39
2019-04-07T08:00:00.282Z,14.54
2019-04-07T08:01:00.530Z,14.54
2019-04-07T08:01:59.367Z,14.55
2019-04-07T08:02:59.326Z,14.57
2019-04-07T08:03:59.733Z,14.65
2019-04-07T08:04:59.362Z,14.62
2019-04-07T08:06:01.997Z,14.77
2019-04-07T08:07:02.169Z,14.72
2019-04-07T08:07:59.401Z,14.77
2019-04-07T08:09:09.819Z,14.75
2019-04-07T08:10:00.696Z,14.83
2019-04-07T08:11:01.492Z,14.83
2019-04-07T08:12:01.631Z,14.95
2019-04-07T08:12:59.659Z,14.96
2019-04-07T08:13:59.228Z,14.94
2019-04-07T08:14:59.206Z,15.11
2019-04-07T08:15:59.710Z,14.99
2019-04-07T08:17:02.132Z,15.11
2019-04-07T08:18:03.200Z,15.19
2019-04-07T08:19:01.337Z,15.16
2019-04-07T08:19:59.916Z,15.19
2019-04-07T08:20:59.285Z,15.27
2019-04-07T08:21:59.656Z,15.21
2019-04-07T08:22:59.331Z,15.34
2019-04-07T08:23:59.108Z,15.32
2019-04-07T08:24:59.926Z,15.31
2019-04-07T08:25:59.170Z,15.35
2019-04-07T08:26:59.454Z,15.44
2019-04-07T08:28:02.161Z,15.47
2019-04-07T08:29:00.135Z,15.54
2019-04-07T08:29:59.072Z,15.46
2019-04-07T08:30:59.536Z,15.56
2019-04-07T08:31:59.150Z,15.62
2019-04-07T08:33:00.426Z,15.57
2019-04-07T08:34:00.045Z,15.65
2019-04-07T08:35:02.111Z,15.60
2019-04-07T08:36:00.063Z,15.68
2019-04-07T08:36:59.527Z,15.83
2019-04-07T08:37:58.945Z,15.74
2019-04-07T08:38:59.556Z,15.78
2019-04-07T08:39:59.442Z,15.84
2019-04-07T08:40:58.916Z,15.82
2019-04-07T08:41:59.430Z,15.83
2019-04-07T08:42:59.404Z,15.84
2019-04-07T08:43:59.799Z,15.83
2019-04-07T08:45:00.565Z,15.90
2019-04-07T08:46:02.239Z,15.92
2019-04-07T08:46:59.839Z,15.97
2019-04-07T08:47:59.419Z,16.01
2019-04-07T08:48:58.814Z,16.08
2019-04-07T08:49:59.743Z,16.09
2019-04-07T08:51:00.724Z,16.09
2019-04-07T08:51:59.022Z,16.12
2019-04-07T08:52:59.023Z,16.17
2019-04-07T08:53:58.765Z,16.21
2019-04-07T08:54:58.751Z,16.23
2019-04-07T08:55:58.901Z,16.30
2019-04-07T08:56:59.194Z,16.41
2019-04-07T08:58:02.221Z,16.33
2019-04-07T08:58:59.180Z,16.45
2019-04-07T08:59:58.918Z,16.45
2019-04-07T09:00:58.738Z,16.49
2019-04-07T09:01:58.674Z,16.49
2019-04-07T09:03:04.003Z,16.42
2019-04-07T09:03:59.934Z,16.50
2019-04-07T09:04:58.637Z,16.49
2019-04-07T09:05:58.657Z,16.52
2019-04-07T09:07:00.848Z,16.60
2019-04-07T09:07:59.350Z,16.61
2019-04-07T09:08:58.689Z,16.63
2019-04-07T09:09:58.726Z,16.61
2019-04-07T09:10:59.375Z,16.63
2019-04-07T09:11:59.294Z,16.64
2019-04-07T09:13:00.643Z,16.70
2019-04-07T09:13:58.858Z,16.75
2019-04-07T09:14:59.238Z,16.75
2019-04-07T09:15:59.023Z,16.75
2019-04-07T09:16:59.172Z,16.82
2019-04-07T09:17:58.939Z,16.86
2019-04-07T09:19:03.825Z,16.88
2019-04-07T09:19:59.696Z,16.91
2019-04-07T09:20:58.468Z,16.91
2019-04-07T09:21:58.448Z,17.06
2019-04-07T09:22:58.497Z,17.12
2019-04-07T09:23:59.215Z,17.03
2019-04-07T09:25:00.752Z,17.03
2019-04-07T09:26:00.147Z,17.15
2019-04-07T09:26:58.829Z,17.11
2019-04-07T09:27:58.395Z,17.08
2019-04-07T09:28:58.736Z,17.21
2019-04-07T09:29:58.948Z,17.26
2019-04-07T09:31:01.205Z,17.19
2019-04-07T09:31:58.690Z,17.25
2019-04-07T09:32:58.789Z,17.28
2019-04-07T09:33:58.347Z,17.30
2019-04-07T09:34:58.307Z,17.36
2019-04-07T09:35:59.333Z,17.33
2019-04-07T09:36:59.033Z,17.30
2019-04-07T09:37:58.759Z,17.41
2019-04-07T09:39:01.769Z,17.41
2019-04-07T09:40:02.060Z,17.52
2019-04-07T09:40:58.454Z,17.51
2019-04-07T09:41:58.450Z,17.46
2019-04-07T09:43:00.844Z,17.58
2019-04-07T09:44:01.107Z,17.55
2019-04-07T09:44:58.527Z,17.52
2019-04-07T09:45:58.348Z,17.49
2019-04-07T09:46:58.623Z,17.59
2019-04-07T09:47:58.762Z,17.58
2019-04-07T09:48:58.774Z,17.63
2019-04-07T09:49:58.426Z,17.58
2019-04-07T09:51:02.535Z,17.56
2019-04-07T09:51:59.890Z,17.72
2019-04-07T09:52:58.100Z,17.75
2019-04-07T09:53:58.745Z,17.66
2019-04-07T09:54:58.639Z,17.74
2019-04-07T09:55:59.132Z,17.81
2019-04-07T09:56:58.780Z,17.72
2019-04-07T09:57:58.069Z,17.72
2019-04-07T09:58:58.069Z,17.84
2019-04-07T09:59:58.090Z,17.77
2019-04-07T10:00:58.451Z,17.79
2019-04-07T10:02:01.054Z,17.86
2019-04-07T10:02:57.991Z,17.81
2019-04-07T10:03:57.991Z,17.92
2019-04-07T10:04:57.961Z,17.90
2019-04-07T10:05:57.972Z,17.99
2019-04-07T10:06:57.941Z,17.95
2019-04-07T10:07:58.013Z,17.93
2019-04-07T10:08:58.827Z,18.03
2019-04-07T10:10:08.533Z,17.96
2019-04-07T10:10:59.426Z,17.99
2019-04-07T10:11:57.944Z,17.99
2019-04-07T10:12:57.906Z,18.05
2019-04-07T10:13:57.873Z,18.05
2019-04-07T10:14:58.335Z,18.10
2019-04-07T10:15:57.868Z,18.05
2019-04-07T10:16:57.831Z,18.17
2019-04-07T10:17:58.678Z,18.20
2019-04-07T10:18:57.830Z,18.15
2019-04-07T10:19:57.816Z,18.14
2019-04-07T10:20:57.798Z,18.17
2019-04-07T10:22:00.523Z,18.21
2019-04-07T10:22:57.793Z,18.05
2019-04-07T10:23:58.695Z,18.20
2019-04-07T10:24:58.306Z,18.12
2019-04-07T10:25:58.415Z,18.20
2019-04-07T10:26:57.775Z,18.26
2019-04-07T10:27:57.704Z,18.32
2019-04-07T10:28:57.716Z,18.29
2019-04-07T10:29:58.026Z,18.26
2019-04-07T10:30:58.510Z,18.27
2019-04-07T10:31:57.692Z,18.32
2019-04-07T10:32:58.414Z,18.35
2019-04-07T10:33:58.310Z,18.36
2019-04-07T10:34:57.668Z,18.39
2019-04-07T10:35:57.991Z,18.37
2019-04-07T10:36:57.904Z,18.35
2019-04-07T10:37:58.170Z,18.36
2019-04-07T10:38:57.590Z,18.41
2019-04-07T10:39:59.370Z,18.50
2019-04-07T10:40:57.767Z,18.50
2019-04-07T10:41:57.628Z,18.57
2019-04-07T10:42:58.378Z,18.57
2019-04-07T10:43:57.838Z,18.52
2019-04-07T10:44:58.337Z,18.63
2019-04-07T10:45:57.979Z,18.62
2019-04-07T10:46:57.558Z,18.58
2019-04-07T10:47:57.859Z,18.65
2019-04-07T10:48:57.492Z,18.65
2019-04-07T10:50:02.548Z,18.78
2019-04-07T10:50:59.093Z,18.78
2019-04-07T10:51:58.018Z,18.80
2019-04-07T10:52:58.001Z,18.80
2019-04-07T10:53:58.376Z,18.81
2019-04-07T10:54:57.414Z,18.82
2019-04-07T10:55:57.497Z,18.82
2019-04-07T10:56:57.384Z,18.87
2019-04-07T10:57:57.378Z,18.91
2019-04-07T10:58:58.182Z,18.88
2019-04-07T10:59:57.854Z,18.88
2019-04-07T11:00:57.333Z,18.88
2019-04-07T11:01:57.879Z,18.88
2019-04-07T11:02:57.322Z,18.94
2019-04-07T11:03:57.668Z,18.88
2019-04-07T11:04:57.457Z,18.98
2019-04-07T11:05:58.192Z,19.02
2019-04-07T11:06:57.536Z,18.99
2019-04-07T11:07:58.622Z,18.99
2019-04-07T11:08:57.835Z,18.98
2019-04-07T11:09:57.564Z,19.16
2019-04-07T11:10:57.230Z,19.04
2019-04-07T11:11:57.226Z,19.10
2019-04-07T11:12:57.271Z,19.19
2019-04-07T11:13:57.186Z,19.18
2019-04-07T11:14:57.228Z,19.18
2019-04-07T11:15:57.674Z,19.16
2019-04-07T11:16:59.886Z,19.22
2019-04-07T11:17:57.168Z,19.22
2019-04-07T11:18:57.131Z,19.22
2019-04-07T11:19:57.123Z,19.19
2019-04-07T11:20:57.291Z,19.23
2019-04-07T11:21:57.099Z,19.23
2019-04-07T11:22:57.543Z,19.31
2019-04-07T11:23:57.767Z,19.32
2019-04-07T11:24:57.482Z,19.33
2019-04-07T11:25:57.079Z,19.41
2019-04-07T11:26:57.076Z,19.48
2019-04-07T11:27:57.037Z,19.43
2019-04-07T11:28:57.025Z,19.41
2019-04-07T11:29:57.430Z,19.51
2019-04-07T11:30:57.454Z,19.44
2019-04-07T11:31:56.985Z,19.48
2019-04-07T11:32:57.613Z,19.55
2019-04-07T11:33:57.214Z,19.46
2019-04-07T11:34:57.296Z,19.48
2019-04-07T11:35:57.453Z,19.50
2019-04-07T11:36:57.133Z,19.47
2019-04-07T11:37:57.169Z,19.51
2019-04-07T11:38:56.913Z,19.59
2019-04-07T11:39:57.719Z,19.56
2019-04-07T11:40:57.736Z,19.59
2019-04-07T11:41:57.405Z,19.73
2019-04-07T11:42:56.874Z,19.69
2019-04-07T11:43:57.508Z,19.73
2019-04-07T11:44:57.524Z,19.66
2019-04-07T11:46:01.331Z,19.73
2019-04-07T11:46:57.927Z,19.77
2019-04-07T11:47:56.991Z,19.84
2019-04-07T11:48:56.804Z,19.84
2019-04-07T11:49:57.179Z,19.84
2019-04-07T11:50:57.599Z,19.99
2019-04-07T11:51:57.553Z,19.94
2019-04-07T11:52:57.325Z,20.03
2019-04-07T11:53:56.772Z,20.03
2019-04-07T11:54:57.300Z,19.95
2019-04-07T11:55:57.667Z,20.11
2019-04-07T11:56:57.338Z,20.01
2019-04-07T11:58:09.695Z,20.03
2019-04-07T11:58:58.975Z,20.16
2019-04-07T11:59:57.532Z,20.05
2019-04-07T12:00:57.128Z,20.03
2019-04-07T12:01:56.707Z,20.11
2019-04-07T12:02:56.721Z,20.05
2019-04-07T12:03:57.144Z,20.08
2019-04-07T12:04:56.629Z,19.99
2019-04-07T12:05:57.081Z,20.10
2019-04-07T12:06:56.631Z,20.03
2019-04-07T12:07:58.412Z,19.98
2019-04-07T12:08:56.578Z,19.94
2019-04-07T12:09:56.977Z,20.02
2019-04-07T12:11:02.143Z,20.02
2019-04-07T12:11:58.225Z,20.02
2019-04-07T12:12:57.016Z,20.03
2019-04-07T12:13:56.553Z,20.14
2019-04-07T12:14:56.675Z,20.24
2019-04-07T12:15:57.122Z,20.24
2019-04-07T12:16:58.463Z,20.33
2019-04-07T12:17:56.480Z,20.26
2019-04-07T12:18:56.516Z,20.35
2019-04-07T12:19:57.165Z,20.33
2019-04-07T12:21:00.922Z,20.41
2019-04-07T12:21:57.932Z,20.38
2019-04-07T12:22:56.423Z,20.26
2019-04-07T12:23:56.476Z,20.26
2019-04-07T12:24:59.283Z,20.38
2019-04-07T12:25:56.689Z,20.36
2019-04-07T12:26:56.746Z,20.38
2019-04-07T12:27:56.740Z,20.39
2019-04-07T12:28:56.376Z,20.51
2019-04-07T12:29:56.933Z,20.51
2019-04-07T12:30:56.433Z,20.48
2019-04-07T12:31:56.535Z,20.51
2019-04-07T12:32:56.317Z,20.47
2019-04-07T12:33:56.332Z,20.47
2019-04-07T12:34:56.636Z,20.48
2019-04-07T12:35:56.388Z,20.29
2019-04-07T12:36:57.153Z,20.36
2019-04-07T12:37:58.388Z,20.36
2019-04-07T12:38:56.370Z,20.47
2019-04-07T12:39:56.267Z,20.35
2019-04-07T12:41:10.251Z,20.38
2019-04-07T12:41:58.176Z,20.35
2019-04-07T12:42:56.961Z,20.38
2019-04-07T12:43:56.259Z,20.41
2019-04-07T12:44:57.010Z,20.38
2019-04-07T12:45:56.275Z,20.43
2019-04-07T12:46:57.089Z,20.39
2019-04-07T12:47:56.172Z,20.42
2019-04-07T12:48:56.495Z,20.47
2019-04-07T12:49:56.236Z,20.52
2019-04-07T12:50:56.319Z,20.54
2019-04-07T12:51:57.022Z,20.51